Terminal Aerodrome Forecast
Issued by NWS Upton, NY

Home | Current Version | Previous Version | Text Only | Print | Product List | Glossary On
Versions: 1 2 3 4 5 6 7 8 9 10 11 12 13 14 15 16 17 18 19 20 21 22 23 24 25 26 27 28 29 30 31 32 33 34 35 36 37 38 39 40 41 42 43 44 45 46 47 48 49 50
000
FTUS41 KOKX 210832 AAA
TAFBDR
TAF AMD
KBDR 210832Z 2109/2206 31014G23KT P6SM FEW035
     FM211200 30019G28KT P6SM BKN060
     FM211600 31023G36KT P6SM BKN100
     FM212300 31019G31KT P6SM FEW250
     FM220300 31018G26KT P6SM SKC=

USA.gov is the U.S. government's official web portal to all federal, state and local government web resources and services.